sensor_id;sensor_type;location;lat;lon;timestamp;temperature;humidity
36916;DHT22;22836;52.268;9.008;2022-07-06T00:02:49;19.90;41.00
36916;DHT22;22836;52.268;9.008;2022-07-06T00:06:54;19.80;41.10
36916;DHT22;22836;52.268;9.008;2022-07-06T00:11:00;19.80;41.20
36916;DHT22;22836;52.268;9.008;2022-07-06T00:15:02;19.80;41.30
36916;DHT22;22836;52.268;9.008;2022-07-06T00:19:12;19.70;41.00
36916;DHT22;22836;52.268;9.008;2022-07-06T00:23:20;19.70;41.30
36916;DHT22;22836;52.268;9.008;2022-07-06T00:27:23;19.60;41.50
36916;DHT22;22836;52.268;9.008;2022-07-06T00:31:32;19.60;41.20
36916;DHT22;22836;52.268;9.008;2022-07-06T00:35:34;19.60;41.90
36916;DHT22;22836;52.268;9.008;2022-07-06T00:39:41;19.50;41.30
36916;DHT22;22836;52.268;9.008;2022-07-06T00:43:53;19.50;41.60
36916;DHT22;22836;52.268;9.008;2022-07-06T00:47:59;19.60;42.00
36916;DHT22;22836;52.268;9.008;2022-07-06T00:52:01;19.50;41.50
36916;DHT22;22836;52.268;9.008;2022-07-06T00:56:06;19.50;41.50
36916;DHT22;22836;52.268;9.008;2022-07-06T01:00:11;19.40;41.80
36916;DHT22;22836;52.268;9.008;2022-07-06T01:04:20;19.40;41.80
36916;DHT22;22836;52.268;9.008;2022-07-06T01:08:25;19.30;42.30
36916;DHT22;22836;52.268;9.008;2022-07-06T01:12:30;19.30;42.10
36916;DHT22;22836;52.268;9.008;2022-07-06T01:16:36;19.30;42.30
36916;DHT22;22836;52.268;9.008;2022-07-06T01:20:38;19.20;42.30
36916;DHT22;22836;52.268;9.008;2022-07-06T01:24:49;19.20;42.00
36916;DHT22;22836;52.268;9.008;2022-07-06T01:28:57;19.20;42.30
36916;DHT22;22836;52.268;9.008;2022-07-06T01:33:02;19.20;42.70
36916;DHT22;22836;52.268;9.008;2022-07-06T01:37:07;19.10;42.50
36916;DHT22;22836;52.268;9.008;2022-07-06T01:41:11;19.10;42.60
36916;DHT22;22836;52.268;9.008;2022-07-06T01:45:19;19.10;42.70
36916;DHT22;22836;52.268;9.008;2022-07-06T01:49:24;19.10;43.00
36916;DHT22;22836;52.268;9.008;2022-07-06T01:53:29;19.10;42.70
36916;DHT22;22836;52.268;9.008;2022-07-06T01:57:37;19.00;42.70
36916;DHT22;22836;52.268;9.008;2022-07-06T02:01:44;19.00;43.10
36916;DHT22;22836;52.268;9.008;2022-07-06T02:14:21;18.90;42.80
36916;DHT22;22836;52.268;9.008;2022-07-06T02:18:23;18.80;42.80
36916;DHT22;22836;52.268;9.008;2022-07-06T02:22:26;18.80;43.00
36916;DHT22;22836;52.268;9.008;2022-07-06T02:26:28;18.80;43.10
36916;DHT22;22836;52.268;9.008;2022-07-06T02:30:30;18.80;43.10
36916;DHT22;22836;52.268;9.008;2022-07-06T02:34:33;18.70;43.20
36916;DHT22;22836;52.268;9.008;2022-07-06T02:38:34;18.70;43.30
36916;DHT22;22836;52.268;9.008;2022-07-06T02:42:39;18.70;43.40
36916;DHT22;22836;52.268;9.008;2022-07-06T02:46:41;18.60;43.90
36916;DHT22;22836;52.268;9.008;2022-07-06T02:50:53;18.60;43.50
36916;DHT22;22836;52.268;9.008;2022-07-06T02:54:57;18.60;43.90
36916;DHT22;22836;52.268;9.008;2022-07-06T02:59:06;18.50;43.80
36916;DHT22;22836;52.268;9.008;2022-07-06T03:03:14;18.50;44.30
36916;DHT22;22836;52.268;9.008;2022-07-06T03:07:16;18.50;43.80
36916;DHT22;22836;52.268;9.008;2022-07-06T03:11:18;18.50;44.00
36916;DHT22;22836;52.268;9.008;2022-07-06T03:15:26;18.50;44.00
36916;DHT22;22836;52.268;9.008;2022-07-06T03:19:35;18.50;44.40
36916;DHT22;22836;52.268;9.008;2022-07-06T03:23:39;18.50;44.20
36916;DHT22;22836;52.268;9.008;2022-07-06T03:27:48;18.40;44.60
36916;DHT22;22836;52.268;9.008;2022-07-06T03:31:53;18.40;45.30
36916;DHT22;22836;52.268;9.008;2022-07-06T03:35:57;18.40;44.80
36916;DHT22;22836;52.268;9.008;2022-07-06T03:40:02;18.40;44.70
36916;DHT22;22836;52.268;9.008;2022-07-06T03:44:12;18.40;44.90
36916;DHT22;22836;52.268;9.008;2022-07-06T03:48:14;18.40;44.90
36916;DHT22;22836;52.268;9.008;2022-07-06T03:52:18;18.30;44.90
36916;DHT22;22836;52.268;9.008;2022-07-06T03:56:20;18.30;45.00
36916;DHT22;22836;52.268;9.008;2022-07-06T04:00:26;18.30;45.20
36916;DHT22;22836;52.268;9.008;2022-07-06T04:04:43;18.20;45.10
36916;DHT22;22836;52.268;9.008;2022-07-06T04:08:46;18.20;46.60
36916;DHT22;22836;52.268;9.008;2022-07-06T04:12:50;18.20;45.30
36916;DHT22;22836;52.268;9.008;2022-07-06T04:16:52;18.20;45.70
36916;DHT22;22836;52.268;9.008;2022-07-06T04:21:04;18.20;45.60
36916;DHT22;22836;52.268;9.008;2022-07-06T04:25:09;18.10;46.20
36916;DHT22;22836;52.268;9.008;2022-07-06T04:29:13;18.00;46.40
36916;DHT22;22836;52.268;9.008;2022-07-06T04:33:15;17.90;46.30
36916;DHT22;22836;52.268;9.008;2022-07-06T04:37:17;17.90;46.20
36916;DHT22;22836;52.268;9.008;2022-07-06T04:41:19;17.90;46.60
36916;DHT22;22836;52.268;9.008;2022-07-06T04:45:21;17.90;46.50
36916;DHT22;22836;52.268;9.008;2022-07-06T04:49:23;17.90;46.70
36916;DHT22;22836;52.268;9.008;2022-07-06T04:53:25;17.90;46.80
36916;DHT22;22836;52.268;9.008;2022-07-06T04:57:27;17.90;46.80
36916;DHT22;22836;52.268;9.008;2022-07-06T05:01:28;18.00;47.10
36916;DHT22;22836;52.268;9.008;2022-07-06T05:05:30;18.00;46.90
36916;DHT22;22836;52.268;9.008;2022-07-06T05:09:34;18.00;46.90
36916;DHT22;22836;52.268;9.008;2022-07-06T05:13:39;18.10;47.30
36916;DHT22;22836;52.268;9.008;2022-07-06T05:17:41;18.10;47.10
36916;DHT22;22836;52.268;9.008;2022-07-06T05:21:50;18.20;46.90
36916;DHT22;22836;52.268;9.008;2022-07-06T05:25:52;18.30;46.70
36916;DHT22;22836;52.268;9.008;2022-07-06T05:29:56;18.50;47.10
36916;DHT22;22836;52.268;9.008;2022-07-06T05:33:57;18.60;46.90
36916;DHT22;22836;52.268;9.008;2022-07-06T05:37:59;18.60;46.90
36916;DHT22;22836;52.268;9.008;2022-07-06T05:42:01;18.70;46.80
36916;DHT22;22836;52.268;9.008;2022-07-06T05:46:03;18.80;47.10
36916;DHT22;22836;52.268;9.008;2022-07-06T05:50:06;18.80;46.80
36916;DHT22;22836;52.268;9.008;2022-07-06T05:54:08;18.90;46.80
36916;DHT22;22836;52.268;9.008;2022-07-06T05:58:10;19.00;46.70
36916;DHT22;22836;52.268;9.008;2022-07-06T06:02:12;19.00;46.80
36916;DHT22;22836;52.268;9.008;2022-07-06T06:06:14;19.10;46.90
36916;DHT22;22836;52.268;9.008;2022-07-06T06:10:20;19.10;46.90
36916;DHT22;22836;52.268;9.008;2022-07-06T06:14:26;19.10;47.00
36916;DHT22;22836;52.268;9.008;2022-07-06T06:18:32;19.30;46.90
36916;DHT22;22836;52.268;9.008;2022-07-06T06:22:46;19.40;47.00
36916;DHT22;22836;52.268;9.008;2022-07-06T06:26:51;19.50;47.20
36916;DHT22;22836;52.268;9.008;2022-07-06T06:30:53;19.50;46.80
36916;DHT22;22836;52.268;9.008;2022-07-06T06:34:57;19.60;46.70
36916;DHT22;22836;52.268;9.008;2022-07-06T06:38:59;19.70;46.70
36916;DHT22;22836;52.268;9.008;2022-07-06T06:43:03;19.80;46.50
36916;DHT22;22836;52.268;9.008;2022-07-06T06:47:05;19.90;46.40
36916;DHT22;22836;52.268;9.008;2022-07-06T06:51:07;20.10;46.20
36916;DHT22;22836;52.268;9.008;2022-07-06T06:55:09;20.20;46.00
36916;DHT22;22836;52.268;9.008;2022-07-06T06:59:11;20.40;45.90
36916;DHT22;22836;52.268;9.008;2022-07-06T07:03:18;20.50;45.70
36916;DHT22;22836;52.268;9.008;2022-07-06T07:07:20;20.70;45.60
36916;DHT22;22836;52.268;9.008;2022-07-06T07:11:22;20.80;45.40
36916;DHT22;22836;52.268;9.008;2022-07-06T07:15:23;20.90;45.30
36916;DHT22;22836;52.268;9.008;2022-07-06T07:19:25;21.00;45.30
36916;DHT22;22836;52.268;9.008;2022-07-06T07:23:27;21.10;45.20
36916;DHT22;22836;52.268;9.008;2022-07-06T07:27:29;21.20;45.10
36916;DHT22;22836;52.268;9.008;2022-07-06T07:31:30;21.30;45.00
36916;DHT22;22836;52.268;9.008;2022-07-06T07:35:32;21.40;44.80
36916;DHT22;22836;52.268;9.008;2022-07-06T07:39:34;21.40;44.70
36916;DHT22;22836;52.268;9.008;2022-07-06T07:43:36;21.50;44.60
36916;DHT22;22836;52.268;9.008;2022-07-06T07:47:38;21.50;44.60
36916;DHT22;22836;52.268;9.008;2022-07-06T07:51:40;21.60;44.60
36916;DHT22;22836;52.268;9.008;2022-07-06T07:55:42;21.60;44.50
36916;DHT22;22836;52.268;9.008;2022-07-06T07:59:44;21.80;44.40
36916;DHT22;22836;52.268;9.008;2022-07-06T08:03:46;21.80;44.40
36916;DHT22;22836;52.268;9.008;2022-07-06T08:07:47;21.90;44.50
36916;DHT22;22836;52.268;9.008;2022-07-06T08:11:54;22.10;44.30
36916;DHT22;22836;52.268;9.008;2022-07-06T08:15:56;22.20;43.90
36916;DHT22;22836;52.268;9.008;2022-07-06T08:19:58;22.30;43.10
36916;DHT22;22836;52.268;9.008;2022-07-06T08:23:59;22.30;42.80
36916;DHT22;22836;52.268;9.008;2022-07-06T08:28:01;22.30;42.80
36916;DHT22;22836;52.268;9.008;2022-07-06T08:32:03;22.30;42.90
36916;DHT22;22836;52.268;9.008;2022-07-06T08:36:19;22.40;42.90
36916;DHT22;22836;52.268;9.008;2022-07-06T08:40:22;22.40;42.90
36916;DHT22;22836;52.268;9.008;2022-07-06T08:44:23;22.50;42.70
36916;DHT22;22836;52.268;9.008;2022-07-06T08:48:27;22.50;43.00
36916;DHT22;22836;52.268;9.008;2022-07-06T08:52:32;22.60;42.30
36916;DHT22;22836;52.268;9.008;2022-07-06T08:56:34;22.60;42.20
36916;DHT22;22836;52.268;9.008;2022-07-06T09:00:37;22.70;42.20
36916;DHT22;22836;52.268;9.008;2022-07-06T09:04:39;22.80;42.10
36916;DHT22;22836;52.268;9.008;2022-07-06T09:08:44;22.90;41.70
36916;DHT22;22836;52.268;9.008;2022-07-06T09:12:47;22.90;41.60
36916;DHT22;22836;52.268;9.008;2022-07-06T09:17:04;23.00;41.50
36916;DHT22;22836;52.268;9.008;2022-07-06T09:21:16;23.10;40.80
36916;DHT22;22836;52.268;9.008;2022-07-06T09:25:24;23.10;40.40
36916;DHT22;22836;52.268;9.008;2022-07-06T09:29:30;23.10;40.60
36916;DHT22;22836;52.268;9.008;2022-07-06T09:33:32;23.10;40.30
36916;DHT22;22836;52.268;9.008;2022-07-06T09:37:34;23.10;40.30
36916;DHT22;22836;52.268;9.008;2022-07-06T09:41:36;23.20;39.90
36916;DHT22;22836;52.268;9.008;2022-07-06T09:45:39;23.30;39.70
36916;DHT22;22836;52.268;9.008;2022-07-06T09:49:42;23.20;39.70
36916;DHT22;22836;52.268;9.008;2022-07-06T09:53:51;23.10;39.60
36916;DHT22;22836;52.268;9.008;2022-07-06T09:57:55;23.10;39.40
36916;DHT22;22836;52.268;9.008;2022-07-06T10:02:02;23.20;39.40
36916;DHT22;22836;52.268;9.008;2022-07-06T10:06:05;23.40;39.30
36916;DHT22;22836;52.268;9.008;2022-07-06T10:10:08;23.60;39.00
36916;DHT22;22836;52.268;9.008;2022-07-06T10:14:12;23.60;38.40
36916;DHT22;22836;52.268;9.008;2022-07-06T10:18:19;23.50;38.40
36916;DHT22;22836;52.268;9.008;2022-07-06T10:22:21;23.40;38.60
36916;DHT22;22836;52.268;9.008;2022-07-06T10:26:23;23.30;38.40
36916;DHT22;22836;52.268;9.008;2022-07-06T10:30:27;23.30;38.70
36916;DHT22;22836;52.268;9.008;2022-07-06T10:34:30;23.20;38.50
36916;DHT22;22836;52.268;9.008;2022-07-06T10:38:33;23.10;38.40
36916;DHT22;22836;52.268;9.008;2022-07-06T10:42:43;23.10;38.70
36916;DHT22;22836;52.268;9.008;2022-07-06T10:46:51;23.00;38.70
36916;DHT22;22836;52.268;9.008;2022-07-06T10:50:59;23.10;38.80
36916;DHT22;22836;52.268;9.008;2022-07-06T10:55:01;23.30;38.90
36916;DHT22;22836;52.268;9.008;2022-07-06T10:59:11;23.60;38.90
36916;DHT22;22836;52.268;9.008;2022-07-06T11:03:34;23.80;38.60
36916;DHT22;22836;52.268;9.008;2022-07-06T11:07:49;24.20;37.90
36916;DHT22;22836;52.268;9.008;2022-07-06T11:11:52;24.30;37.70
36916;DHT22;22836;52.268;9.008;2022-07-06T11:16:01;24.50;37.60
36916;DHT22;22836;52.268;9.008;2022-07-06T11:20:11;24.60;37.20
36916;DHT22;22836;52.268;9.008;2022-07-06T11:24:16;24.70;36.30
36916;DHT22;22836;52.268;9.008;2022-07-06T11:28:18;24.50;36.60
36916;DHT22;22836;52.268;9.008;2022-07-06T11:32:25;24.40;36.80
36916;DHT22;22836;52.268;9.008;2022-07-06T11:36:28;24.20;36.80
36916;DHT22;22836;52.268;9.008;2022-07-06T11:40:39;24.10;37.00
36916;DHT22;22836;52.268;9.008;2022-07-06T11:44:42;24.00;37.00
36916;DHT22;22836;52.268;9.008;2022-07-06T11:48:48;24.00;37.30
36916;DHT22;22836;52.268;9.008;2022-07-06T11:52:50;24.20;37.40
36916;DHT22;22836;52.268;9.008;2022-07-06T11:56:57;24.50;37.20
36916;DHT22;22836;52.268;9.008;2022-07-06T12:05:07;24.90;36.50
36916;DHT22;22836;52.268;9.008;2022-07-06T12:09:10;24.90;36.80
36916;DHT22;22836;52.268;9.008;2022-07-06T12:13:12;24.80;36.70
36916;DHT22;22836;52.268;9.008;2022-07-06T12:17:17;24.80;36.90
36916;DHT22;22836;52.268;9.008;2022-07-06T12:21:20;24.70;37.00
36916;DHT22;22836;52.268;9.008;2022-07-06T12:25:35;24.70;37.00
36916;DHT22;22836;52.268;9.008;2022-07-06T12:29:37;24.90;36.50
36916;DHT22;22836;52.268;9.008;2022-07-06T12:33:41;25.00;36.70
36916;DHT22;22836;52.268;9.008;2022-07-06T12:37:57;25.30;36.50
36916;DHT22;22836;52.268;9.008;2022-07-06T12:42:04;25.60;36.10
36916;DHT22;22836;52.268;9.008;2022-07-06T12:46:41;25.60;35.90
36916;DHT22;22836;52.268;9.008;2022-07-06T12:50:46;25.60;35.80
36916;DHT22;22836;52.268;9.008;2022-07-06T12:54:52;25.60;35.90
36916;DHT22;22836;52.268;9.008;2022-07-06T12:59:00;25.60;36.10
36916;DHT22;22836;52.268;9.008;2022-07-06T13:03:05;25.70;36.00
36916;DHT22;22836;52.268;9.008;2022-07-06T13:07:18;25.90;36.00
36916;DHT22;22836;52.268;9.008;2022-07-06T13:11:20;26.00;35.80
36916;DHT22;22836;52.268;9.008;2022-07-06T13:15:22;26.10;35.70
36916;DHT22;22836;52.268;9.008;2022-07-06T13:19:24;26.20;35.70
36916;DHT22;22836;52.268;9.008;2022-07-06T13:23:27;26.30;35.70
36916;DHT22;22836;52.268;9.008;2022-07-06T13:27:30;26.50;35.40
36916;DHT22;22836;52.268;9.008;2022-07-06T13:31:31;26.60;34.50
36916;DHT22;22836;52.268;9.008;2022-07-06T13:35:33;26.50;34.30
36916;DHT22;22836;52.268;9.008;2022-07-06T13:39:35;26.40;34.60
36916;DHT22;22836;52.268;9.008;2022-07-06T13:43:37;26.30;34.70
36916;DHT22;22836;52.268;9.008;2022-07-06T13:47:39;26.30;34.50
36916;DHT22;22836;52.268;9.008;2022-07-06T13:51:42;26.50;34.90
36916;DHT22;22836;52.268;9.008;2022-07-06T13:55:44;26.80;34.40
36916;DHT22;22836;52.268;9.008;2022-07-06T13:59:48;27.00;33.80
36916;DHT22;22836;52.268;9.008;2022-07-06T14:03:54;27.00;33.90
36916;DHT22;22836;52.268;9.008;2022-07-06T14:07:56;26.80;33.90
36916;DHT22;22836;52.268;9.008;2022-07-06T14:12:00;27.10;34.30
36916;DHT22;22836;52.268;9.008;2022-07-06T14:16:03;27.70;33.60
36916;DHT22;22836;52.268;9.008;2022-07-06T14:20:06;27.70;33.30
36916;DHT22;22836;52.268;9.008;2022-07-06T14:24:08;27.60;33.50
36916;DHT22;22836;52.268;9.008;2022-07-06T14:28:11;27.60;34.20
36916;DHT22;22836;52.268;9.008;2022-07-06T14:32:14;28.80;33.40
36916;DHT22;22836;52.268;9.008;2022-07-06T14:36:16;29.60;33.20
36916;DHT22;22836;52.268;9.008;2022-07-06T14:40:20;30.50;33.00
36916;DHT22;22836;52.268;9.008;2022-07-06T14:44:22;31.90;31.90
36916;DHT22;22836;52.268;9.008;2022-07-06T14:48:24;32.90;30.60
36916;DHT22;22836;52.268;9.008;2022-07-06T14:52:26;32.70;29.80
36916;DHT22;22836;52.268;9.008;2022-07-06T14:56:31;31.90;30.00
36916;DHT22;22836;52.268;9.008;2022-07-06T15:00:33;31.10;30.20
36916;DHT22;22836;52.268;9.008;2022-07-06T15:04:37;30.40;30.80
36916;DHT22;22836;52.268;9.008;2022-07-06T15:08:38;29.80;31.30
36916;DHT22;22836;52.268;9.008;2022-07-06T15:12:41;29.40;31.00
36916;DHT22;22836;52.268;9.008;2022-07-06T15:16:42;29.20;31.00
36916;DHT22;22836;52.268;9.008;2022-07-06T15:20:44;28.90;31.00
36916;DHT22;22836;52.268;9.008;2022-07-06T15:24:47;28.50;31.10
36916;DHT22;22836;52.268;9.008;2022-07-06T15:28:49;28.00;31.40
36916;DHT22;22836;52.268;9.008;2022-07-06T15:32:50;27.90;31.90
36916;DHT22;22836;52.268;9.008;2022-07-06T15:36:55;27.80;32.00
36916;DHT22;22836;52.268;9.008;2022-07-06T15:41:00;28.20;32.30
36916;DHT22;22836;52.268;9.008;2022-07-06T15:45:12;28.80;31.40
36916;DHT22;22836;52.268;9.008;2022-07-06T15:49:14;28.90;31.10
36916;DHT22;22836;52.268;9.008;2022-07-06T15:53:19;28.60;30.90
36916;DHT22;22836;52.268;9.008;2022-07-06T15:57:24;28.20;31.20
36916;DHT22;22836;52.268;9.008;2022-07-06T16:01:35;28.10;31.30
36916;DHT22;22836;52.268;9.008;2022-07-06T16:05:37;28.20;31.50
36916;DHT22;22836;52.268;9.008;2022-07-06T16:10:01;28.20;31.50
36916;DHT22;22836;52.268;9.008;2022-07-06T16:14:04;28.10;31.50
36916;DHT22;22836;52.268;9.008;2022-07-06T16:18:06;27.90;31.50
36916;DHT22;22836;52.268;9.008;2022-07-06T16:22:08;27.70;31.50
36916;DHT22;22836;52.268;9.008;2022-07-06T16:26:11;27.40;31.70
36916;DHT22;22836;52.268;9.008;2022-07-06T16:30:14;27.10;31.90
36916;DHT22;22836;52.268;9.008;2022-07-06T16:34:31;26.70;32.00
36916;DHT22;22836;52.268;9.008;2022-07-06T16:38:33;26.50;32.10
36916;DHT22;22836;52.268;9.008;2022-07-06T16:42:35;26.20;32.30
36916;DHT22;22836;52.268;9.008;2022-07-06T16:46:37;26.00;32.40
36916;DHT22;22836;52.268;9.008;2022-07-06T16:50:45;25.90;32.60
36916;DHT22;22836;52.268;9.008;2022-07-06T16:54:54;25.80;32.80
36916;DHT22;22836;52.268;9.008;2022-07-06T16:58:59;25.70;32.80
36916;DHT22;22836;52.268;9.008;2022-07-06T17:03:01;25.60;32.90
36916;DHT22;22836;52.268;9.008;2022-07-06T17:07:09;25.60;33.10
36916;DHT22;22836;52.268;9.008;2022-07-06T17:11:14;25.50;33.20
36916;DHT22;22836;52.268;9.008;2022-07-06T17:15:19;25.40;33.10
36916;DHT22;22836;52.268;9.008;2022-07-06T17:19:30;25.20;33.10
36916;DHT22;22836;52.268;9.008;2022-07-06T17:27:54;24.90;33.40
36916;DHT22;22836;52.268;9.008;2022-07-06T17:31:56;24.90;33.60
36916;DHT22;22836;52.268;9.008;2022-07-06T17:35:59;24.80;33.80
36916;DHT22;22836;52.268;9.008;2022-07-06T17:40:02;24.70;33.90
36916;DHT22;22836;52.268;9.008;2022-07-06T17:44:13;24.60;33.90
36916;DHT22;22836;52.268;9.008;2022-07-06T17:48:15;24.50;34.00
36916;DHT22;22836;52.268;9.008;2022-07-06T17:52:17;24.40;34.10
36916;DHT22;22836;52.268;9.008;2022-07-06T17:56:19;24.40;34.20
36916;DHT22;22836;52.268;9.008;2022-07-06T18:00:30;24.30;34.30
36916;DHT22;22836;52.268;9.008;2022-07-06T18:04:33;24.30;34.40
36916;DHT22;22836;52.268;9.008;2022-07-06T18:08:34;24.20;34.50
36916;DHT22;22836;52.268;9.008;2022-07-06T18:12:49;24.10;34.60
36916;DHT22;22836;52.268;9.008;2022-07-06T18:16:52;24.00;34.70
36916;DHT22;22836;52.268;9.008;2022-07-06T18:20:54;24.00;34.70
36916;DHT22;22836;52.268;9.008;2022-07-06T18:25:04;24.00;34.80
36916;DHT22;22836;52.268;9.008;2022-07-06T18:29:10;23.90;34.90
36916;DHT22;22836;52.268;9.008;2022-07-06T18:33:13;23.90;35.00
36916;DHT22;22836;52.268;9.008;2022-07-06T18:37:25;23.90;35.00
36916;DHT22;22836;52.268;9.008;2022-07-06T18:41:27;23.80;35.20
36916;DHT22;22836;52.268;9.008;2022-07-06T18:45:31;23.80;35.10
36916;DHT22;22836;52.268;9.008;2022-07-06T18:49:42;23.80;35.20
36916;DHT22;22836;52.268;9.008;2022-07-06T18:53:49;23.70;35.50
36916;DHT22;22836;52.268;9.008;2022-07-06T18:57:56;23.60;35.30
36916;DHT22;22836;52.268;9.008;2022-07-06T19:01:58;23.60;35.40
36916;DHT22;22836;52.268;9.008;2022-07-06T19:06:03;23.60;35.50
36916;DHT22;22836;52.268;9.008;2022-07-06T19:10:13;23.50;35.60
36916;DHT22;22836;52.268;9.008;2022-07-06T19:14:15;23.40;35.80
36916;DHT22;22836;52.268;9.008;2022-07-06T19:18:21;23.40;35.80
36916;DHT22;22836;52.268;9.008;2022-07-06T19:22:31;23.30;35.90
36916;DHT22;22836;52.268;9.008;2022-07-06T19:26:35;23.30;36.20
36916;DHT22;22836;52.268;9.008;2022-07-06T19:30:41;23.20;36.10
36916;DHT22;22836;52.268;9.008;2022-07-06T19:34:44;23.10;36.20
36916;DHT22;22836;52.268;9.008;2022-07-06T19:38:47;23.10;36.40
36916;DHT22;22836;52.268;9.008;2022-07-06T19:42:57;23.00;36.70
36916;DHT22;22836;52.268;9.008;2022-07-06T19:47:05;22.90;37.00
36916;DHT22;22836;52.268;9.008;2022-07-06T19:51:10;22.70;37.00
36916;DHT22;22836;52.268;9.008;2022-07-06T19:55:15;22.80;37.10
36916;DHT22;22836;52.268;9.008;2022-07-06T19:59:19;22.70;37.20
36916;DHT22;22836;52.268;9.008;2022-07-06T20:03:27;22.60;37.40
36916;DHT22;22836;52.268;9.008;2022-07-06T20:07:30;22.50;37.50
36916;DHT22;22836;52.268;9.008;2022-07-06T20:11:42;22.40;37.50
36916;DHT22;22836;52.268;9.008;2022-07-06T20:15:44;22.40;38.10
36916;DHT22;22836;52.268;9.008;2022-07-06T20:19:45;22.40;37.70
36916;DHT22;22836;52.268;9.008;2022-07-06T20:23:47;22.40;37.80
36916;DHT22;22836;52.268;9.008;2022-07-06T20:27:52;22.30;37.90
36916;DHT22;22836;52.268;9.008;2022-07-06T20:31:57;22.30;38.00
36916;DHT22;22836;52.268;9.008;2022-07-06T20:35:59;22.30;38.20
36916;DHT22;22836;52.268;9.008;2022-07-06T20:40:02;22.20;38.30
36916;DHT22;22836;52.268;9.008;2022-07-06T20:44:04;22.20;38.60
36916;DHT22;22836;52.268;9.008;2022-07-06T20:48:06;22.10;38.60
36916;DHT22;22836;52.268;9.008;2022-07-06T20:52:09;22.10;38.70
36916;DHT22;22836;52.268;9.008;2022-07-06T20:56:11;22.10;38.80
36916;DHT22;22836;52.268;9.008;2022-07-06T21:00:14;22.10;38.90
36916;DHT22;22836;52.268;9.008;2022-07-06T21:04:16;22.00;39.00
36916;DHT22;22836;52.268;9.008;2022-07-06T21:08:26;22.00;39.10
36916;DHT22;22836;52.268;9.008;2022-07-06T21:12:29;21.90;39.80
36916;DHT22;22836;52.268;9.008;2022-07-06T21:16:30;21.80;39.40
36916;DHT22;22836;52.268;9.008;2022-07-06T21:25:27;21.70;40.60
36916;DHT22;22836;52.268;9.008;2022-07-06T21:29:29;21.50;40.20
36916;DHT22;22836;52.268;9.008;2022-07-06T21:33:34;21.40;40.40
36916;DHT22;22836;52.268;9.008;2022-07-06T21:37:39;21.30;41.10
36916;DHT22;22836;52.268;9.008;2022-07-06T21:41:41;21.30;41.20
36916;DHT22;22836;52.268;9.008;2022-07-06T21:45:46;21.20;41.10
36916;DHT22;22836;52.268;9.008;2022-07-06T21:49:48;21.10;41.20
36916;DHT22;22836;52.268;9.008;2022-07-06T21:53:49;21.10;41.30
36916;DHT22;22836;52.268;9.008;2022-07-06T21:57:53;21.10;41.50
36916;DHT22;22836;52.268;9.008;2022-07-06T22:01:55;21.00;41.70
36916;DHT22;22836;52.268;9.008;2022-07-06T22:05:58;21.00;41.80
36916;DHT22;22836;52.268;9.008;2022-07-06T22:09:59;21.00;42.00
36916;DHT22;22836;52.268;9.008;2022-07-06T22:14:01;20.90;42.00
36916;DHT22;22836;52.268;9.008;2022-07-06T22:18:03;20.90;42.20
36916;DHT22;22836;52.268;9.008;2022-07-06T22:22:06;20.80;42.20
36916;DHT22;22836;52.268;9.008;2022-07-06T22:26:11;20.80;42.30
36916;DHT22;22836;52.268;9.008;2022-07-06T22:30:21;20.80;42.60
36916;DHT22;22836;52.268;9.008;2022-07-06T22:34:23;20.70;44.10
36916;DHT22;22836;52.268;9.008;2022-07-06T22:38:28;20.70;44.00
36916;DHT22;22836;52.268;9.008;2022-07-06T22:42:33;20.60;43.90
36916;DHT22;22836;52.268;9.008;2022-07-06T22:46:35;20.50;43.70
36916;DHT22;22836;52.268;9.008;2022-07-06T22:50:46;20.40;43.90
36916;DHT22;22836;52.268;9.008;2022-07-06T22:54:47;20.40;43.90
36916;DHT22;22836;52.268;9.008;2022-07-06T22:58:51;20.40;43.90
36916;DHT22;22836;52.268;9.008;2022-07-06T23:02:54;20.40;43.90
36916;DHT22;22836;52.268;9.008;2022-07-06T23:06:56;20.50;44.00
36916;DHT22;22836;52.268;9.008;2022-07-06T23:10:57;20.40;43.90
36916;DHT22;22836;52.268;9.008;2022-07-06T23:14:59;20.40;44.00
36916;DHT22;22836;52.268;9.008;2022-07-06T23:19:04;20.50;44.00
36916;DHT22;22836;52.268;9.008;2022-07-06T23:23:06;20.40;44.00
36916;DHT22;22836;52.268;9.008;2022-07-06T23:27:08;20.50;44.10
36916;DHT22;22836;52.268;9.008;2022-07-06T23:31:10;20.40;44.10
36916;DHT22;22836;52.268;9.008;2022-07-06T23:35:18;20.50;44.40
36916;DHT22;22836;52.268;9.008;2022-07-06T23:39:20;20.40;45.30
36916;DHT22;22836;52.268;9.008;2022-07-06T23:43:22;20.40;45.10
36916;DHT22;22836;52.268;9.008;2022-07-06T23:47:31;20.30;45.10
36916;DHT22;22836;52.268;9.008;2022-07-06T23:51:33;20.20;45.60
36916;DHT22;22836;52.268;9.008;2022-07-06T23:55:37;20.10;45.40
36916;DHT22;22836;52.268;9.008;2022-07-06T23:59:45;20.00;45.80
